sensor_id;sensor_type;location;lat;lon;timestamp;P1;durP1;ratioP1;P2;durP2;ratioP2
39050;SDS011;24805;55.852;37.644;2023-07-13T00:01:53;2.15;;;1.35;;
39050;SDS011;24805;55.852;37.644;2023-07-13T00:06:56;2.20;;;1.60;;
39050;SDS011;24805;55.852;37.644;2023-07-13T00:11:59;3.03;;;1.60;;
39050;SDS011;24805;55.852;37.644;2023-07-13T00:17:01;2.65;;;1.50;;
39050;SDS011;24805;55.852;37.644;2023-07-13T00:22:05;2.72;;;1.63;;
39050;SDS011;24805;55.852;37.644;2023-07-13T00:27:10;3.72;;;1.60;;
39050;SDS011;24805;55.852;37.644;2023-07-13T00:32:13;5.03;;;1.67;;
39050;SDS011;24805;55.852;37.644;2023-07-13T00:37:15;5.75;;;1.95;;
39050;SDS011;24805;55.852;37.644;2023-07-13T00:42:17;3.00;;;2.13;;
39050;SDS011;24805;55.852;37.644;2023-07-13T00:47:20;4.05;;;1.70;;
39050;SDS011;24805;55.852;37.644;2023-07-13T00:52:22;3.40;;;1.77;;
39050;SDS011;24805;55.852;37.644;2023-07-13T00:57:25;4.05;;;1.80;;
39050;SDS011;24805;55.852;37.644;2023-07-13T01:02:27;4.13;;;1.90;;
39050;SDS011;24805;55.852;37.644;2023-07-13T01:07:30;3.33;;;1.70;;
39050;SDS011;24805;55.852;37.644;2023-07-13T01:12:33;5.00;;;1.85;;
39050;SDS011;24805;55.852;37.644;2023-07-13T01:17:36;2.92;;;1.77;;
39050;SDS011;24805;55.852;37.644;2023-07-13T01:22:39;4.43;;;2.00;;
39050;SDS011;24805;55.852;37.644;2023-07-13T01:27:41;3.90;;;1.48;;
39050;SDS011;24805;55.852;37.644;2023-07-13T01:32:44;5.53;;;2.00;;
39050;SDS011;24805;55.852;37.644;2023-07-13T01:37:46;3.53;;;1.63;;
39050;SDS011;24805;55.852;37.644;2023-07-13T01:42:49;4.28;;;1.70;;
39050;SDS011;24805;55.852;37.644;2023-07-13T01:47:54;3.47;;;1.75;;
39050;SDS011;24805;55.852;37.644;2023-07-13T01:52:56;3.63;;;2.10;;
39050;SDS011;24805;55.852;37.644;2023-07-13T01:57:59;3.08;;;2.05;;
39050;SDS011;24805;55.852;37.644;2023-07-13T02:03:01;3.45;;;1.90;;
39050;SDS011;24805;55.852;37.644;2023-07-13T02:08:06;3.22;;;1.65;;
39050;SDS011;24805;55.852;37.644;2023-07-13T02:13:08;2.83;;;1.98;;
39050;SDS011;24805;55.852;37.644;2023-07-13T02:18:10;3.03;;;1.58;;
39050;SDS011;24805;55.852;37.644;2023-07-13T02:23:34;2.40;;;1.70;;
39050;SDS011;24805;55.852;37.644;2023-07-13T02:28:36;2.38;;;1.80;;
39050;SDS011;24805;55.852;37.644;2023-07-13T02:33:38;3.97;;;1.80;;
39050;SDS011;24805;55.852;37.644;2023-07-13T02:38:41;3.00;;;1.67;;
39050;SDS011;24805;55.852;37.644;2023-07-13T02:43:43;2.80;;;1.85;;
39050;SDS011;24805;55.852;37.644;2023-07-13T02:48:45;3.53;;;2.20;;
39050;SDS011;24805;55.852;37.644;2023-07-13T02:53:48;3.65;;;2.28;;
39050;SDS011;24805;55.852;37.644;2023-07-13T02:58:51;5.65;;;2.05;;
39050;SDS011;24805;55.852;37.644;2023-07-13T03:03:53;4.80;;;1.90;;
39050;SDS011;24805;55.852;37.644;2023-07-13T03:08:56;3.58;;;2.22;;
39050;SDS011;24805;55.852;37.644;2023-07-13T03:13:58;2.72;;;1.75;;
39050;SDS011;24805;55.852;37.644;2023-07-13T03:19:05;5.20;;;1.83;;
39050;SDS011;24805;55.852;37.644;2023-07-13T03:24:08;7.95;;;2.10;;
39050;SDS011;24805;55.852;37.644;2023-07-13T03:29:10;7.03;;;2.10;;
39050;SDS011;24805;55.852;37.644;2023-07-13T03:34:13;4.07;;;1.73;;
39050;SDS011;24805;55.852;37.644;2023-07-13T03:39:16;6.95;;;2.20;;
39050;SDS011;24805;55.852;37.644;2023-07-13T03:44:22;3.88;;;1.77;;
39050;SDS011;24805;55.852;37.644;2023-07-13T03:49:28;2.67;;;2.00;;
39050;SDS011;24805;55.852;37.644;2023-07-13T03:54:30;6.35;;;2.28;;
39050;SDS011;24805;55.852;37.644;2023-07-13T03:59:34;4.53;;;1.85;;
39050;SDS011;24805;55.852;37.644;2023-07-13T04:04:36;3.85;;;2.00;;
39050;SDS011;24805;55.852;37.644;2023-07-13T04:09:41;3.90;;;1.95;;
39050;SDS011;24805;55.852;37.644;2023-07-13T04:14:44;4.95;;;1.80;;
39050;SDS011;24805;55.852;37.644;2023-07-13T04:19:47;4.93;;;2.13;;
39050;SDS011;24805;55.852;37.644;2023-07-13T04:24:50;3.38;;;1.90;;
39050;SDS011;24805;55.852;37.644;2023-07-13T04:29:52;5.28;;;2.17;;
39050;SDS011;24805;55.852;37.644;2023-07-13T04:34:54;6.40;;;2.17;;
39050;SDS011;24805;55.852;37.644;2023-07-13T04:39:57;3.35;;;1.75;;
39050;SDS011;24805;55.852;37.644;2023-07-13T04:44:59;4.53;;;2.03;;
39050;SDS011;24805;55.852;37.644;2023-07-13T04:50:02;3.20;;;2.10;;
39050;SDS011;24805;55.852;37.644;2023-07-13T04:55:05;4.30;;;2.10;;
39050;SDS011;24805;55.852;37.644;2023-07-13T05:00:08;3.58;;;1.92;;
39050;SDS011;24805;55.852;37.644;2023-07-13T05:05:13;5.47;;;2.50;;
39050;SDS011;24805;55.852;37.644;2023-07-13T05:10:15;8.82;;;2.50;;
39050;SDS011;24805;55.852;37.644;2023-07-13T05:15:21;5.18;;;2.55;;
39050;SDS011;24805;55.852;37.644;2023-07-13T05:20:24;3.58;;;1.80;;
39050;SDS011;24805;55.852;37.644;2023-07-13T05:25:26;3.72;;;2.00;;
39050;SDS011;24805;55.852;37.644;2023-07-13T05:30:28;4.78;;;2.60;;
39050;SDS011;24805;55.852;37.644;2023-07-13T05:35:30;10.55;;;2.50;;
39050;SDS011;24805;55.852;37.644;2023-07-13T05:40:33;5.25;;;1.75;;
39050;SDS011;24805;55.852;37.644;2023-07-13T05:45:35;5.00;;;2.10;;
39050;SDS011;24805;55.852;37.644;2023-07-13T05:50:37;3.33;;;1.92;;
39050;SDS011;24805;55.852;37.644;2023-07-13T05:55:43;4.40;;;1.95;;
39050;SDS011;24805;55.852;37.644;2023-07-13T06:00:46;6.57;;;1.90;;
39050;SDS011;24805;55.852;37.644;2023-07-13T06:05:49;3.38;;;1.90;;
39050;SDS011;24805;55.852;37.644;2023-07-13T06:10:52;2.95;;;1.80;;
39050;SDS011;24805;55.852;37.644;2023-07-13T06:15:54;6.78;;;1.67;;
39050;SDS011;24805;55.852;37.644;2023-07-13T06:20:56;5.00;;;1.98;;
39050;SDS011;24805;55.852;37.644;2023-07-13T06:25:59;2.38;;;1.70;;
39050;SDS011;24805;55.852;37.644;2023-07-13T06:31:01;4.22;;;1.70;;
39050;SDS011;24805;55.852;37.644;2023-07-13T06:36:04;6.35;;;1.73;;
39050;SDS011;24805;55.852;37.644;2023-07-13T06:41:08;5.18;;;1.85;;
39050;SDS011;24805;55.852;37.644;2023-07-13T06:46:11;2.60;;;1.30;;
39050;SDS011;24805;55.852;37.644;2023-07-13T06:51:13;5.45;;;1.75;;
39050;SDS011;24805;55.852;37.644;2023-07-13T06:56:16;3.35;;;1.77;;
39050;SDS011;24805;55.852;37.644;2023-07-13T07:01:18;4.78;;;1.83;;
39050;SDS011;24805;55.852;37.644;2023-07-13T07:06:21;5.65;;;2.05;;
39050;SDS011;24805;55.852;37.644;2023-07-13T07:11:27;3.45;;;1.73;;
39050;SDS011;24805;55.852;37.644;2023-07-13T07:16:29;3.38;;;1.60;;
39050;SDS011;24805;55.852;37.644;2023-07-13T07:21:31;4.10;;;1.35;;
39050;SDS011;24805;55.852;37.644;2023-07-13T07:26:33;4.15;;;1.80;;
39050;SDS011;24805;55.852;37.644;2023-07-13T07:31:55;4.65;;;1.95;;
39050;SDS011;24805;55.852;37.644;2023-07-13T07:37:01;5.43;;;2.30;;
39050;SDS011;24805;55.852;37.644;2023-07-13T07:42:06;6.32;;;1.83;;
39050;SDS011;24805;55.852;37.644;2023-07-13T07:47:08;3.72;;;1.70;;
39050;SDS011;24805;55.852;37.644;2023-07-13T07:52:11;4.70;;;1.52;;
39050;SDS011;24805;55.852;37.644;2023-07-13T07:57:13;7.65;;;1.50;;
39050;SDS011;24805;55.852;37.644;2023-07-13T08:02:18;4.20;;;1.65;;
39050;SDS011;24805;55.852;37.644;2023-07-13T08:07:23;4.00;;;1.92;;
39050;SDS011;24805;55.852;37.644;2023-07-13T08:12:25;4.20;;;1.77;;
39050;SDS011;24805;55.852;37.644;2023-07-13T08:17:30;3.30;;;1.60;;
39050;SDS011;24805;55.852;37.644;2023-07-13T08:22:33;3.80;;;2.05;;
39050;SDS011;24805;55.852;37.644;2023-07-13T08:27:35;4.82;;;2.35;;
39050;SDS011;24805;55.852;37.644;2023-07-13T08:32:38;3.53;;;1.77;;
39050;SDS011;24805;55.852;37.644;2023-07-13T08:37:40;4.90;;;1.73;;
39050;SDS011;24805;55.852;37.644;2023-07-13T08:42:44;5.10;;;2.00;;
39050;SDS011;24805;55.852;37.644;2023-07-13T08:47:53;5.13;;;1.67;;
39050;SDS011;24805;55.852;37.644;2023-07-13T08:53:13;3.80;;;1.88;;
39050;SDS011;24805;55.852;37.644;2023-07-13T08:58:17;4.25;;;2.42;;
39050;SDS011;24805;55.852;37.644;2023-07-13T09:03:23;7.60;;;2.25;;
39050;SDS011;24805;55.852;37.644;2023-07-13T09:18:54;4.10;;;1.88;;
39050;SDS011;24805;55.852;37.644;2023-07-13T09:24:50;6.65;;;2.22;;
39050;SDS011;24805;55.852;37.644;2023-07-13T09:29:32;3.05;;;1.80;;
39050;SDS011;24805;55.852;37.644;2023-07-13T09:34:38;4.15;;;1.75;;
39050;SDS011;24805;55.852;37.644;2023-07-13T09:39:40;4.60;;;2.17;;
39050;SDS011;24805;55.852;37.644;2023-07-13T09:49:56;3.88;;;2.10;;
39050;SDS011;24805;55.852;37.644;2023-07-13T09:55:12;5.25;;;2.42;;
39050;SDS011;24805;55.852;37.644;2023-07-13T10:00:30;3.78;;;2.17;;
39050;SDS011;24805;55.852;37.644;2023-07-13T10:05:44;7.13;;;2.85;;
39050;SDS011;24805;55.852;37.644;2023-07-13T10:10:58;5.40;;;2.60;;
39050;SDS011;24805;55.852;37.644;2023-07-13T10:16:00;4.53;;;2.60;;
39050;SDS011;24805;55.852;37.644;2023-07-13T10:21:11;3.85;;;2.22;;
39050;SDS011;24805;55.852;37.644;2023-07-13T10:26:26;4.97;;;3.35;;
39050;SDS011;24805;55.852;37.644;2023-07-13T10:31:33;4.82;;;2.42;;
39050;SDS011;24805;55.852;37.644;2023-07-13T10:36:41;5.32;;;2.45;;
39050;SDS011;24805;55.852;37.644;2023-07-13T10:41:47;7.80;;;2.28;;
39050;SDS011;24805;55.852;37.644;2023-07-13T10:47:13;5.07;;;2.72;;
39050;SDS011;24805;55.852;37.644;2023-07-13T10:57:59;8.23;;;3.28;;
39050;SDS011;24805;55.852;37.644;2023-07-13T11:03:02;5.53;;;2.70;;
39050;SDS011;24805;55.852;37.644;2023-07-13T11:08:13;6.45;;;3.10;;
39050;SDS011;24805;55.852;37.644;2023-07-13T11:13:39;5.13;;;2.60;;
39050;SDS011;24805;55.852;37.644;2023-07-13T11:24:15;5.28;;;2.30;;
39050;SDS011;24805;55.852;37.644;2023-07-13T11:34:34;4.35;;;2.40;;
39050;SDS011;24805;55.852;37.644;2023-07-13T11:39:39;6.78;;;2.38;;
39050;SDS011;24805;55.852;37.644;2023-07-13T11:44:48;8.25;;;2.70;;
39050;SDS011;24805;55.852;37.644;2023-07-13T11:50:20;4.80;;;2.42;;
39050;SDS011;24805;55.852;37.644;2023-07-13T11:55:24;4.93;;;2.72;;
39050;SDS011;24805;55.852;37.644;2023-07-13T12:00:30;6.82;;;2.92;;
39050;SDS011;24805;55.852;37.644;2023-07-13T12:05:35;4.70;;;2.90;;
39050;SDS011;24805;55.852;37.644;2023-07-13T12:10:38;8.20;;;3.05;;
39050;SDS011;24805;55.852;37.644;2023-07-13T12:15:41;8.15;;;3.30;;
39050;SDS011;24805;55.852;37.644;2023-07-13T12:20:48;7.22;;;3.03;;
39050;SDS011;24805;55.852;37.644;2023-07-13T12:25:52;6.20;;;3.15;;
39050;SDS011;24805;55.852;37.644;2023-07-13T12:30:57;10.98;;;3.63;;
39050;SDS011;24805;55.852;37.644;2023-07-13T12:36:02;10.07;;;3.40;;
39050;SDS011;24805;55.852;37.644;2023-07-13T12:41:07;6.00;;;3.53;;
39050;SDS011;24805;55.852;37.644;2023-07-13T12:51:26;7.32;;;4.05;;
39050;SDS011;24805;55.852;37.644;2023-07-13T12:56:30;5.75;;;3.20;;
39050;SDS011;24805;55.852;37.644;2023-07-13T13:01:35;5.20;;;2.63;;
39050;SDS011;24805;55.852;37.644;2023-07-13T13:06:40;6.28;;;3.60;;
39050;SDS011;24805;55.852;37.644;2023-07-13T13:11:45;8.25;;;3.10;;
39050;SDS011;24805;55.852;37.644;2023-07-13T13:16:48;5.28;;;3.13;;
39050;SDS011;24805;55.852;37.644;2023-07-13T13:21:53;5.10;;;3.30;;
39050;SDS011;24805;55.852;37.644;2023-07-13T13:26:57;8.27;;;3.15;;
39050;SDS011;24805;55.852;37.644;2023-07-13T13:32:00;7.25;;;2.95;;
39050;SDS011;24805;55.852;37.644;2023-07-13T13:37:02;7.90;;;3.25;;
39050;SDS011;24805;55.852;37.644;2023-07-13T13:42:05;6.57;;;3.35;;
39050;SDS011;24805;55.852;37.644;2023-07-13T13:47:13;6.57;;;3.13;;
39050;SDS011;24805;55.852;37.644;2023-07-13T13:52:38;6.63;;;3.00;;
39050;SDS011;24805;55.852;37.644;2023-07-13T13:57:41;6.93;;;3.20;;
39050;SDS011;24805;55.852;37.644;2023-07-13T14:02:44;6.10;;;3.10;;
39050;SDS011;24805;55.852;37.644;2023-07-13T14:07:49;10.23;;;3.08;;
39050;SDS011;24805;55.852;37.644;2023-07-13T14:12:52;4.70;;;2.78;;
39050;SDS011;24805;55.852;37.644;2023-07-13T14:17:57;6.15;;;2.92;;
39050;SDS011;24805;55.852;37.644;2023-07-13T14:22:59;6.28;;;2.88;;
39050;SDS011;24805;55.852;37.644;2023-07-13T14:28:15;8.88;;;3.70;;
39050;SDS011;24805;55.852;37.644;2023-07-13T14:33:27;6.30;;;3.28;;
39050;SDS011;24805;55.852;37.644;2023-07-13T14:38:29;10.18;;;3.75;;
39050;SDS011;24805;55.852;37.644;2023-07-13T14:43:31;5.70;;;3.17;;
39050;SDS011;24805;55.852;37.644;2023-07-13T14:48:33;6.45;;;2.92;;
39050;SDS011;24805;55.852;37.644;2023-07-13T14:53:36;6.55;;;3.28;;
39050;SDS011;24805;55.852;37.644;2023-07-13T14:58:40;8.70;;;3.15;;
39050;SDS011;24805;55.852;37.644;2023-07-13T15:03:44;5.68;;;3.03;;
39050;SDS011;24805;55.852;37.644;2023-07-13T15:08:47;7.60;;;2.80;;
39050;SDS011;24805;55.852;37.644;2023-07-13T15:13:50;5.47;;;2.70;;
39050;SDS011;24805;55.852;37.644;2023-07-13T15:18:52;5.70;;;3.00;;
39050;SDS011;24805;55.852;37.644;2023-07-13T15:23:55;6.07;;;2.53;;
39050;SDS011;24805;55.852;37.644;2023-07-13T15:28:57;4.82;;;2.28;;
39050;SDS011;24805;55.852;37.644;2023-07-13T15:33:59;4.13;;;2.63;;
39050;SDS011;24805;55.852;37.644;2023-07-13T15:39:01;5.32;;;2.60;;
39050;SDS011;24805;55.852;37.644;2023-07-13T15:44:05;3.70;;;2.30;;
39050;SDS011;24805;55.852;37.644;2023-07-13T15:49:34;4.00;;;2.28;;
39050;SDS011;24805;55.852;37.644;2023-07-13T15:54:37;5.47;;;2.65;;
39050;SDS011;24805;55.852;37.644;2023-07-13T15:59:40;5.05;;;2.88;;
39050;SDS011;24805;55.852;37.644;2023-07-13T16:04:44;7.50;;;2.78;;
39050;SDS011;24805;55.852;37.644;2023-07-13T16:09:46;6.90;;;2.83;;
39050;SDS011;24805;55.852;37.644;2023-07-13T16:14:52;8.35;;;3.17;;
39050;SDS011;24805;55.852;37.644;2023-07-13T16:19:54;5.00;;;3.28;;
39050;SDS011;24805;55.852;37.644;2023-07-13T16:24:57;5.93;;;3.25;;
39050;SDS011;24805;55.852;37.644;2023-07-13T16:30:09;6.88;;;3.08;;
39050;SDS011;24805;55.852;37.644;2023-07-13T16:35:14;4.30;;;2.85;;
39050;SDS011;24805;55.852;37.644;2023-07-13T16:40:21;6.75;;;2.83;;
39050;SDS011;24805;55.852;37.644;2023-07-13T16:45:29;5.87;;;3.30;;
39050;SDS011;24805;55.852;37.644;2023-07-13T16:50:37;5.00;;;2.88;;
39050;SDS011;24805;55.852;37.644;2023-07-13T16:55:42;4.95;;;2.90;;
39050;SDS011;24805;55.852;37.644;2023-07-13T17:00:47;6.25;;;2.90;;
39050;SDS011;24805;55.852;37.644;2023-07-13T17:05:51;5.03;;;3.05;;
39050;SDS011;24805;55.852;37.644;2023-07-13T17:10:55;5.07;;;2.70;;
39050;SDS011;24805;55.852;37.644;2023-07-13T17:15:59;6.50;;;3.58;;
39050;SDS011;24805;55.852;37.644;2023-07-13T17:21:02;6.88;;;3.72;;
39050;SDS011;24805;55.852;37.644;2023-07-13T17:26:05;4.70;;;3.33;;
39050;SDS011;24805;55.852;37.644;2023-07-13T17:31:09;7.50;;;4.00;;
39050;SDS011;24805;55.852;37.644;2023-07-13T17:36:20;8.38;;;4.05;;
39050;SDS011;24805;55.852;37.644;2023-07-13T17:41:22;8.52;;;3.58;;
39050;SDS011;24805;55.852;37.644;2023-07-13T17:46:29;7.10;;;3.67;;
39050;SDS011;24805;55.852;37.644;2023-07-13T17:51:33;6.40;;;4.00;;
39050;SDS011;24805;55.852;37.644;2023-07-13T17:56:37;5.50;;;3.40;;
39050;SDS011;24805;55.852;37.644;2023-07-13T18:01:43;8.65;;;5.40;;
39050;SDS011;24805;55.852;37.644;2023-07-13T18:06:45;10.52;;;5.10;;
39050;SDS011;24805;55.852;37.644;2023-07-13T18:11:54;7.07;;;3.88;;
39050;SDS011;24805;55.852;37.644;2023-07-13T18:16:58;6.25;;;3.72;;
39050;SDS011;24805;55.852;37.644;2023-07-13T18:22:04;5.85;;;3.80;;
39050;SDS011;24805;55.852;37.644;2023-07-13T18:27:12;8.27;;;4.15;;
39050;SDS011;24805;55.852;37.644;2023-07-13T18:32:18;5.47;;;4.10;;
39050;SDS011;24805;55.852;37.644;2023-07-13T18:37:23;6.10;;;3.88;;
39050;SDS011;24805;55.852;37.644;2023-07-13T18:42:26;4.45;;;3.80;;
39050;SDS011;24805;55.852;37.644;2023-07-13T18:47:28;6.90;;;4.10;;
39050;SDS011;24805;55.852;37.644;2023-07-13T18:52:36;6.03;;;3.45;;
39050;SDS011;24805;55.852;37.644;2023-07-13T18:57:39;4.50;;;3.00;;
39050;SDS011;24805;55.852;37.644;2023-07-13T19:02:42;6.53;;;3.17;;
39050;SDS011;24805;55.852;37.644;2023-07-13T19:07:45;5.80;;;4.45;;
39050;SDS011;24805;55.852;37.644;2023-07-13T19:12:51;5.88;;;3.60;;
39050;SDS011;24805;55.852;37.644;2023-07-13T19:18:00;5.07;;;3.05;;
39050;SDS011;24805;55.852;37.644;2023-07-13T19:23:36;6.00;;;3.72;;
39050;SDS011;24805;55.852;37.644;2023-07-13T19:28:41;6.93;;;4.00;;
39050;SDS011;24805;55.852;37.644;2023-07-13T19:33:44;5.93;;;3.95;;
39050;SDS011;24805;55.852;37.644;2023-07-13T19:38:48;6.25;;;3.92;;
39050;SDS011;24805;55.852;37.644;2023-07-13T19:43:51;5.53;;;3.90;;
39050;SDS011;24805;55.852;37.644;2023-07-13T19:48:54;8.25;;;4.78;;
39050;SDS011;24805;55.852;37.644;2023-07-13T19:54:00;6.68;;;3.67;;
39050;SDS011;24805;55.852;37.644;2023-07-13T19:59:47;6.72;;;5.05;;
39050;SDS011;24805;55.852;37.644;2023-07-13T20:04:32;4.88;;;2.90;;
39050;SDS011;24805;55.852;37.644;2023-07-13T20:09:34;6.65;;;4.53;;
39050;SDS011;24805;55.852;37.644;2023-07-13T20:14:44;4.55;;;3.08;;
39050;SDS011;24805;55.852;37.644;2023-07-13T20:19:48;6.30;;;3.38;;
39050;SDS011;24805;55.852;37.644;2023-07-13T20:24:50;5.57;;;3.15;;
39050;SDS011;24805;55.852;37.644;2023-07-13T20:29:52;4.22;;;2.92;;
39050;SDS011;24805;55.852;37.644;2023-07-13T20:34:54;8.63;;;3.20;;
39050;SDS011;24805;55.852;37.644;2023-07-13T20:39:59;4.25;;;3.10;;
39050;SDS011;24805;55.852;37.644;2023-07-13T20:45:05;3.20;;;2.70;;
39050;SDS011;24805;55.852;37.644;2023-07-13T20:55:29;5.15;;;3.47;;
39050;SDS011;24805;55.852;37.644;2023-07-13T21:00:32;11.63;;;9.77;;
39050;SDS011;24805;55.852;37.644;2023-07-13T21:05:35;4.45;;;3.40;;
39050;SDS011;24805;55.852;37.644;2023-07-13T21:10:40;6.55;;;3.60;;
39050;SDS011;24805;55.852;37.644;2023-07-13T21:15:44;5.28;;;3.85;;
39050;SDS011;24805;55.852;37.644;2023-07-13T21:20:48;5.35;;;3.47;;
39050;SDS011;24805;55.852;37.644;2023-07-13T21:25:52;7.05;;;3.80;;
39050;SDS011;24805;55.852;37.644;2023-07-13T21:30:59;4.90;;;3.55;;
39050;SDS011;24805;55.852;37.644;2023-07-13T21:36:03;3.42;;;3.10;;
39050;SDS011;24805;55.852;37.644;2023-07-13T21:46:25;7.05;;;5.78;;
39050;SDS011;24805;55.852;37.644;2023-07-13T21:51:30;5.20;;;3.30;;
39050;SDS011;24805;55.852;37.644;2023-07-13T21:56:35;6.05;;;3.72;;
39050;SDS011;24805;55.852;37.644;2023-07-13T22:01:37;4.70;;;3.25;;
39050;SDS011;24805;55.852;37.644;2023-07-13T22:06:40;13.10;;;8.35;;
39050;SDS011;24805;55.852;37.644;2023-07-13T22:11:42;4.57;;;3.22;;
39050;SDS011;24805;55.852;37.644;2023-07-13T22:16:45;5.72;;;3.67;;
39050;SDS011;24805;55.852;37.644;2023-07-13T22:21:47;6.72;;;3.38;;
39050;SDS011;24805;55.852;37.644;2023-07-13T22:26:49;3.40;;;2.80;;
39050;SDS011;24805;55.852;37.644;2023-07-13T22:31:52;4.55;;;3.10;;
39050;SDS011;24805;55.852;37.644;2023-07-13T22:36:55;6.78;;;3.35;;
39050;SDS011;24805;55.852;37.644;2023-07-13T22:41:57;4.28;;;2.97;;
39050;SDS011;24805;55.852;37.644;2023-07-13T22:47:00;6.78;;;3.78;;
39050;SDS011;24805;55.852;37.644;2023-07-13T22:52:03;4.78;;;3.92;;
39050;SDS011;24805;55.852;37.644;2023-07-13T22:57:05;5.90;;;3.65;;
39050;SDS011;24805;55.852;37.644;2023-07-13T23:02:12;5.10;;;3.70;;
39050;SDS011;24805;55.852;37.644;2023-07-13T23:07:18;5.63;;;3.25;;
39050;SDS011;24805;55.852;37.644;2023-07-13T23:12:23;3.72;;;2.67;;
39050;SDS011;24805;55.852;37.644;2023-07-13T23:17:25;6.35;;;3.63;;
39050;SDS011;24805;55.852;37.644;2023-07-13T23:22:31;4.25;;;3.28;;
39050;SDS011;24805;55.852;37.644;2023-07-13T23:27:34;6.22;;;3.70;;
39050;SDS011;24805;55.852;37.644;2023-07-13T23:32:36;4.40;;;3.20;;
39050;SDS011;24805;55.852;37.644;2023-07-13T23:37:38;4.38;;;3.53;;
39050;SDS011;24805;55.852;37.644;2023-07-13T23:42:42;4.80;;;3.58;;
39050;SDS011;24805;55.852;37.644;2023-07-13T23:47:45;4.85;;;2.90;;
39050;SDS011;24805;55.852;37.644;2023-07-13T23:52:49;3.88;;;2.90;;
39050;SDS011;24805;55.852;37.644;2023-07-13T23:57:52;4.72;;;3.45;;
